sensor_id;sensor_type;location;lat;lon;timestamp;pressure;altitude;pressure_sealevel;temperature;humidity
53908;BME280;40469;47.998;7.794;2023-04-23T00:01:25;98491.34;;;12.36;100.00
53908;BME280;40469;47.998;7.794;2023-04-23T00:03:54;98486.13;;;12.36;100.00
53908;BME280;40469;47.998;7.794;2023-04-23T00:06:21;98492.16;;;12.38;100.00
53908;BME280;40469;47.998;7.794;2023-04-23T00:08:47;98497.47;;;12.35;100.00
53908;BME280;40469;47.998;7.794;2023-04-23T00:11:15;98494.03;;;12.32;100.00
53908;BME280;40469;47.998;7.794;2023-04-23T00:13:40;98493.97;;;12.36;100.00
53908;BME280;40469;47.998;7.794;2023-04-23T00:16:06;98494.81;;;12.36;100.00
53908;BME280;40469;47.998;7.794;2023-04-23T00:18:32;98501.13;;;12.27;100.00
53908;BME280;40469;47.998;7.794;2023-04-23T00:20:57;98492.53;;;12.22;100.00
53908;BME280;40469;47.998;7.794;2023-04-23T00:23:23;98482.38;;;12.08;100.00
53908;BME280;40469;47.998;7.794;2023-04-23T00:25:48;98501.41;;;12.17;100.00
53908;BME280;40469;47.998;7.794;2023-04-23T00:28:13;98495.25;;;12.18;100.00
53908;BME280;40469;47.998;7.794;2023-04-23T00:30:39;98501.31;;;12.21;100.00
53908;BME280;40469;47.998;7.794;2023-04-23T00:33:04;98499.28;;;11.95;100.00
53908;BME280;40469;47.998;7.794;2023-04-23T00:35:30;98499.16;;;12.00;100.00
53908;BME280;40469;47.998;7.794;2023-04-23T00:37:55;98508.84;;;11.96;100.00
53908;BME280;40469;47.998;7.794;2023-04-23T00:40:21;98501.38;;;11.77;100.00
53908;BME280;40469;47.998;7.794;2023-04-23T00:42:47;98503.50;;;11.60;100.00
53908;BME280;40469;47.998;7.794;2023-04-23T00:45:16;98495.47;;;11.69;100.00
53908;BME280;40469;47.998;7.794;2023-04-23T00:47:42;98502.53;;;11.64;100.00
53908;BME280;40469;47.998;7.794;2023-04-23T00:50:08;98499.31;;;11.51;100.00
53908;BME280;40469;47.998;7.794;2023-04-23T00:52:33;98496.72;;;11.51;100.00
53908;BME280;40469;47.998;7.794;2023-04-23T00:55:00;98501.94;;;11.51;100.00
53908;BME280;40469;47.998;7.794;2023-04-23T00:57:25;98496.13;;;11.38;100.00
53908;BME280;40469;47.998;7.794;2023-04-23T00:59:52;98495.47;;;11.27;100.00
53908;BME280;40469;47.998;7.794;2023-04-23T01:02:19;98505.91;;;11.27;100.00
53908;BME280;40469;47.998;7.794;2023-04-23T01:04:47;98501.88;;;11.11;100.00
53908;BME280;40469;47.998;7.794;2023-04-23T01:07:15;98501.13;;;11.04;100.00
53908;BME280;40469;47.998;7.794;2023-04-23T01:09:41;98506.31;;;11.07;100.00
53908;BME280;40469;47.998;7.794;2023-04-23T01:12:06;98508.94;;;11.06;100.00
53908;BME280;40469;47.998;7.794;2023-04-23T01:14:33;98508.19;;;10.99;100.00
53908;BME280;40469;47.998;7.794;2023-04-23T01:16:59;98502.28;;;10.91;100.00
53908;BME280;40469;47.998;7.794;2023-04-23T01:19:26;98504.97;;;10.86;100.00
53908;BME280;40469;47.998;7.794;2023-04-23T01:21:52;98500.72;;;10.80;100.00
53908;BME280;40469;47.998;7.794;2023-04-23T01:24:17;98498.31;;;10.70;100.00
53908;BME280;40469;47.998;7.794;2023-04-23T01:26:43;98496.63;;;10.66;100.00
53908;BME280;40469;47.998;7.794;2023-04-23T01:29:09;98491.41;;;10.64;100.00
53908;BME280;40469;47.998;7.794;2023-04-23T01:31:34;98483.72;;;10.58;100.00
53908;BME280;40469;47.998;7.794;2023-04-23T01:34:00;98491.66;;;10.52;100.00
53908;BME280;40469;47.998;7.794;2023-04-23T01:36:26;98482.16;;;10.48;100.00
53908;BME280;40469;47.998;7.794;2023-04-23T01:38:52;98479.50;;;10.49;100.00
53908;BME280;40469;47.998;7.794;2023-04-23T01:41:17;98480.38;;;10.48;100.00
53908;BME280;40469;47.998;7.794;2023-04-23T01:43:44;98476.97;;;10.44;100.00
53908;BME280;40469;47.998;7.794;2023-04-23T01:46:10;98479.50;;;10.49;100.00
53908;BME280;40469;47.998;7.794;2023-04-23T01:48:36;98483.00;;;10.48;100.00
53908;BME280;40469;47.998;7.794;2023-04-23T01:51:02;98485.47;;;10.57;100.00
53908;BME280;40469;47.998;7.794;2023-04-23T01:53:28;98481.06;;;10.59;100.00
53908;BME280;40469;47.998;7.794;2023-04-23T01:55:54;98476.75;;;10.57;100.00
53908;BME280;40469;47.998;7.794;2023-04-23T01:58:20;98478.50;;;10.58;100.00
53908;BME280;40469;47.998;7.794;2023-04-23T02:00:47;98476.59;;;10.68;100.00
53908;BME280;40469;47.998;7.794;2023-04-23T02:03:12;98481.97;;;10.57;100.00
53908;BME280;40469;47.998;7.794;2023-04-23T02:05:39;98476.72;;;10.60;100.00
53908;BME280;40469;47.998;7.794;2023-04-23T02:08:05;98483.59;;;10.64;100.00
53908;BME280;40469;47.998;7.794;2023-04-23T02:10:30;98479.19;;;10.68;100.00
53908;BME280;40469;47.998;7.794;2023-04-23T02:12:57;98478.31;;;10.67;100.00
53908;BME280;40469;47.998;7.794;2023-04-23T02:15:23;98486.75;;;10.81;100.00
53908;BME280;40469;47.998;7.794;2023-04-23T02:17:48;98487.63;;;10.82;100.00
53908;BME280;40469;47.998;7.794;2023-04-23T02:20:17;98494.59;;;10.81;100.00
53908;BME280;40469;47.998;7.794;2023-04-23T02:22:44;98500.78;;;10.77;100.00
53908;BME280;40469;47.998;7.794;2023-04-23T02:25:10;98488.75;;;10.67;100.00
53908;BME280;40469;47.998;7.794;2023-04-23T02:27:36;98487.06;;;10.66;100.00
53908;BME280;40469;47.998;7.794;2023-04-23T02:30:01;98488.56;;;10.78;100.00
53908;BME280;40469;47.998;7.794;2023-04-23T02:32:27;98480.06;;;10.68;100.00
53908;BME280;40469;47.998;7.794;2023-04-23T02:34:52;98479.03;;;10.77;100.00
53908;BME280;40469;47.998;7.794;2023-04-23T02:37:18;98472.81;;;10.82;100.00
53908;BME280;40469;47.998;7.794;2023-04-23T02:39:43;98466.00;;;10.75;100.00
53908;BME280;40469;47.998;7.794;2023-04-23T02:42:10;98467.66;;;10.79;100.00
53908;BME280;40469;47.998;7.794;2023-04-23T02:44:35;98480.69;;;10.81;100.00
53908;BME280;40469;47.998;7.794;2023-04-23T02:47:01;98484.84;;;10.91;100.00
53908;BME280;40469;47.998;7.794;2023-04-23T02:49:27;98479.84;;;10.80;100.00
53908;BME280;40469;47.998;7.794;2023-04-23T02:51:52;98485.84;;;10.86;100.00
53908;BME280;40469;47.998;7.794;2023-04-23T02:54:17;98489.44;;;10.80;100.00
53908;BME280;40469;47.998;7.794;2023-04-23T02:56:43;98485.06;;;10.79;100.00
53908;BME280;40469;47.998;7.794;2023-04-23T02:59:08;98479.88;;;10.77;100.00
53908;BME280;40469;47.998;7.794;2023-04-23T03:01:34;98486.84;;;10.78;100.00
53908;BME280;40469;47.998;7.794;2023-04-23T03:04:00;98483.31;;;10.79;100.00
53908;BME280;40469;47.998;7.794;2023-04-23T03:06:27;98483.38;;;10.76;100.00
53908;BME280;40469;47.998;7.794;2023-04-23T03:08:52;98483.25;;;10.84;100.00
53908;BME280;40469;47.998;7.794;2023-04-23T03:11:17;98477.97;;;10.87;100.00
53908;BME280;40469;47.998;7.794;2023-04-23T03:13:43;98477.00;;;10.93;100.00
53908;BME280;40469;47.998;7.794;2023-04-23T03:16:08;98478.00;;;10.86;100.00
53908;BME280;40469;47.998;7.794;2023-04-23T03:18:33;98481.50;;;10.83;100.00
53908;BME280;40469;47.998;7.794;2023-04-23T03:20:59;98478.63;;;10.98;100.00
53908;BME280;40469;47.998;7.794;2023-04-23T03:23:24;98480.41;;;10.96;100.00
53908;BME280;40469;47.998;7.794;2023-04-23T03:25:49;98473.56;;;10.89;100.00
53908;BME280;40469;47.998;7.794;2023-04-23T03:28:15;98472.41;;;11.04;100.00
53908;BME280;40469;47.998;7.794;2023-04-23T03:30:40;98470.81;;;10.97;100.00
53908;BME280;40469;47.998;7.794;2023-04-23T03:33:06;98462.97;;;10.97;100.00
53908;BME280;40469;47.998;7.794;2023-04-23T03:35:31;98445.59;;;10.96;100.00
53908;BME280;40469;47.998;7.794;2023-04-23T03:37:57;98453.13;;;11.10;100.00
53908;BME280;40469;47.998;7.794;2023-04-23T03:40:22;98448.13;;;10.99;100.00
53908;BME280;40469;47.998;7.794;2023-04-23T03:42:47;98445.47;;;11.02;100.00
53908;BME280;40469;47.998;7.794;2023-04-23T03:45:14;98442.69;;;11.10;100.00
53908;BME280;40469;47.998;7.794;2023-04-23T03:47:40;98442.63;;;11.13;100.00
53908;BME280;40469;47.998;7.794;2023-04-23T03:50:06;98445.25;;;11.11;100.00
53908;BME280;40469;47.998;7.794;2023-04-23T03:52:32;98451.22;;;11.18;100.00
53908;BME280;40469;47.998;7.794;2023-04-23T03:54:57;98448.81;;;11.09;100.00
53908;BME280;40469;47.998;7.794;2023-04-23T03:57:23;98442.41;;;11.24;100.00
53908;BME280;40469;47.998;7.794;2023-04-23T03:59:48;98449.72;;;11.06;100.00
53908;BME280;40469;47.998;7.794;2023-04-23T04:02:13;98451.50;;;11.04;100.00
53908;BME280;40469;47.998;7.794;2023-04-23T04:04:39;98449.63;;;11.12;100.00
53908;BME280;40469;47.998;7.794;2023-04-23T04:07:04;98463.53;;;11.13;100.00
53908;BME280;40469;47.998;7.794;2023-04-23T04:09:31;98464.44;;;11.12;100.00
53908;BME280;40469;47.998;7.794;2023-04-23T04:11:57;98454.88;;;11.09;100.00
53908;BME280;40469;47.998;7.794;2023-04-23T04:14:22;98454.97;;;11.05;100.00
53908;BME280;40469;47.998;7.794;2023-04-23T04:16:48;98453.25;;;11.05;100.00
53908;BME280;40469;47.998;7.794;2023-04-23T04:19:14;98445.47;;;11.02;100.00
53908;BME280;40469;47.998;7.794;2023-04-23T04:21:39;98448.09;;;11.00;100.00
53908;BME280;40469;47.998;7.794;2023-04-23T04:24:04;98458.47;;;11.05;100.00
53908;BME280;40469;47.998;7.794;2023-04-23T04:26:30;98454.94;;;11.06;100.00
53908;BME280;40469;47.998;7.794;2023-04-23T04:28:59;98452.47;;;11.00;100.00
53908;BME280;40469;47.998;7.794;2023-04-23T04:31:26;98449.63;;;11.12;100.00
53908;BME280;40469;47.998;7.794;2023-04-23T04:33:53;98459.09;;;11.16;100.00
53908;BME280;40469;47.998;7.794;2023-04-23T04:36:19;98452.22;;;11.12;100.00
53908;BME280;40469;47.998;7.794;2023-04-23T04:38:45;98456.66;;;11.09;100.00
53908;BME280;40469;47.998;7.794;2023-04-23T04:41:10;98448.19;;;10.96;100.00
53908;BME280;40469;47.998;7.794;2023-04-23T04:43:37;98453.44;;;10.96;100.00
53908;BME280;40469;47.998;7.794;2023-04-23T04:46:03;98455.16;;;10.95;100.00
53908;BME280;40469;47.998;7.794;2023-04-23T04:48:29;98454.47;;;10.87;100.00
53908;BME280;40469;47.998;7.794;2023-04-23T04:50:55;98456.16;;;10.88;100.00
53908;BME280;40469;47.998;7.794;2023-04-23T04:53:21;98452.53;;;10.95;100.00
53908;BME280;40469;47.998;7.794;2023-04-23T04:55:46;98451.75;;;10.92;100.00
53908;BME280;40469;47.998;7.794;2023-04-23T04:58:12;98453.19;;;11.08;100.00
53908;BME280;40469;47.998;7.794;2023-04-23T05:00:37;98450.72;;;11.00;100.00
53908;BME280;40469;47.998;7.794;2023-04-23T05:03:03;98455.16;;;10.95;100.00
53908;BME280;40469;47.998;7.794;2023-04-23T05:05:28;98450.69;;;11.02;100.00
53908;BME280;40469;47.998;7.794;2023-04-23T05:07:54;98451.44;;;11.07;100.00
53908;BME280;40469;47.998;7.794;2023-04-23T05:10:20;98457.47;;;11.11;100.00
53908;BME280;40469;47.998;7.794;2023-04-23T05:12:46;98456.72;;;11.04;100.00
53908;BME280;40469;47.998;7.794;2023-04-23T05:15:12;98455.66;;;11.14;100.00
53908;BME280;40469;47.998;7.794;2023-04-23T05:17:41;98457.25;;;11.22;100.00
53908;BME280;40469;47.998;7.794;2023-04-23T05:20:07;98450.47;;;11.13;100.00
53908;BME280;40469;47.998;7.794;2023-04-23T05:22:37;98448.59;;;11.19;100.00
53908;BME280;40469;47.998;7.794;2023-04-23T05:25:04;98443.16;;;11.29;100.00
53908;BME280;40469;47.998;7.794;2023-04-23T05:27:30;98453.84;;;11.18;100.00
53908;BME280;40469;47.998;7.794;2023-04-23T05:29:55;98442.19;;;11.33;100.00
53908;BME280;40469;47.998;7.794;2023-04-23T05:32:21;98438.00;;;11.26;100.00
53908;BME280;40469;47.998;7.794;2023-04-23T05:34:46;98439.75;;;11.25;100.00
53908;BME280;40469;47.998;7.794;2023-04-23T05:37:11;98439.31;;;11.45;100.00
53908;BME280;40469;47.998;7.794;2023-04-23T05:39:37;98434.06;;;11.47;100.00
53908;BME280;40469;47.998;7.794;2023-04-23T05:42:02;98436.03;;;11.37;100.00
53908;BME280;40469;47.998;7.794;2023-04-23T05:44:28;98441.19;;;11.40;100.00
53908;BME280;40469;47.998;7.794;2023-04-23T05:46:53;98429.81;;;11.43;100.00
53908;BME280;40469;47.998;7.794;2023-04-23T05:49:19;98434.97;;;11.46;100.00
53908;BME280;40469;47.998;7.794;2023-04-23T05:51:44;98432.47;;;11.39;100.00
53908;BME280;40469;47.998;7.794;2023-04-23T05:54:10;98440.97;;;11.51;100.00
53908;BME280;40469;47.998;7.794;2023-04-23T05:56:35;98431.56;;;11.42;100.00
53908;BME280;40469;47.998;7.794;2023-04-23T05:59:01;98434.06;;;11.47;100.00
53908;BME280;40469;47.998;7.794;2023-04-23T06:01:26;98436.75;;;11.44;100.00
53908;BME280;40469;47.998;7.794;2023-04-23T06:03:51;98440.22;;;11.44;100.00
53908;BME280;40469;47.998;7.794;2023-04-23T06:06:17;98434.94;;;11.47;100.00
53908;BME280;40469;47.998;7.794;2023-04-23T06:08:42;98440.16;;;11.49;100.00
53908;BME280;40469;47.998;7.794;2023-04-23T06:11:08;98439.09;;;11.56;100.00
53908;BME280;40469;47.998;7.794;2023-04-23T06:13:34;98445.81;;;11.66;100.00
53908;BME280;40469;47.998;7.794;2023-04-23T06:16:04;98450.25;;;11.64;100.00
53908;BME280;40469;47.998;7.794;2023-04-23T06:18:29;98439.78;;;11.64;100.00
53908;BME280;40469;47.998;7.794;2023-04-23T06:20:55;98435.50;;;11.62;100.00
53908;BME280;40469;47.998;7.794;2023-04-23T06:23:21;98438.91;;;11.65;100.00
53908;BME280;40469;47.998;7.794;2023-04-23T06:25:46;98438.72;;;11.73;100.00
53908;BME280;40469;47.998;7.794;2023-04-23T06:28:12;98436.75;;;11.83;100.00
53908;BME280;40469;47.998;7.794;2023-04-23T06:30:37;98428.72;;;11.92;100.00
53908;BME280;40469;47.998;7.794;2023-04-23T06:33:02;98426.06;;;11.93;100.00
53908;BME280;40469;47.998;7.794;2023-04-23T06:35:28;98431.34;;;11.92;100.00
53908;BME280;40469;47.998;7.794;2023-04-23T06:37:54;98420.50;;;12.07;100.00
53908;BME280;40469;47.998;7.794;2023-04-23T06:40:20;98416.88;;;12.13;100.00
53908;BME280;40469;47.998;7.794;2023-04-23T06:42:45;98415.03;;;12.17;100.00
53908;BME280;40469;47.998;7.794;2023-04-23T06:45:11;98417.38;;;12.27;100.00
53908;BME280;40469;47.998;7.794;2023-04-23T06:47:37;98415.59;;;12.28;100.00
53908;BME280;40469;47.998;7.794;2023-04-23T06:50:03;98406.94;;;12.26;100.00
53908;BME280;40469;47.998;7.794;2023-04-23T06:52:29;98401.84;;;12.21;100.00
53908;BME280;40469;47.998;7.794;2023-04-23T06:54:55;98406.88;;;12.29;100.00
53908;BME280;40469;47.998;7.794;2023-04-23T06:57:20;98405.63;;;12.42;100.00
53908;BME280;40469;47.998;7.794;2023-04-23T06:59:46;98403.75;;;12.47;100.00
53908;BME280;40469;47.998;7.794;2023-04-23T07:02:11;98389.75;;;12.50;100.00
53908;BME280;40469;47.998;7.794;2023-04-23T07:04:36;98383.56;;;12.52;100.00
53908;BME280;40469;47.998;7.794;2023-04-23T07:07:02;98382.41;;;12.63;100.00
53908;BME280;40469;47.998;7.794;2023-04-23T07:09:27;98388.44;;;12.65;100.00
53908;BME280;40469;47.998;7.794;2023-04-23T07:11:53;98376.09;;;12.70;100.00
53908;BME280;40469;47.998;7.794;2023-04-23T07:14:18;98378.28;;;12.85;100.00
53908;BME280;40469;47.998;7.794;2023-04-23T07:16:44;98377.78;;;12.73;100.00
53908;BME280;40469;47.998;7.794;2023-04-23T07:19:09;98377.25;;;12.91;100.00
53908;BME280;40469;47.998;7.794;2023-04-23T07:21:34;98378.75;;;13.00;100.00
53908;BME280;40469;47.998;7.794;2023-04-23T07:24:00;98367.03;;;12.82;100.00
53908;BME280;40469;47.998;7.794;2023-04-23T07:26:31;98361.16;;;13.03;100.00
53908;BME280;40469;47.998;7.794;2023-04-23T07:28:57;98359.09;;;13.15;100.00
53908;BME280;40469;47.998;7.794;2023-04-23T07:31:22;98363.00;;;13.30;100.00
53908;BME280;40469;47.998;7.794;2023-04-23T07:33:48;98353.38;;;13.30;100.00
53908;BME280;40469;47.998;7.794;2023-04-23T07:36:14;98355.28;;;13.25;100.00
53908;BME280;40469;47.998;7.794;2023-04-23T07:38:39;98351.69;;;13.29;100.00
53908;BME280;40469;47.998;7.794;2023-04-23T07:41:05;98348.97;;;13.32;100.00
53908;BME280;40469;47.998;7.794;2023-04-23T07:43:30;98347.06;;;13.37;100.00
53908;BME280;40469;47.998;7.794;2023-04-23T07:45:56;98351.22;;;13.44;100.00
53908;BME280;40469;47.998;7.794;2023-04-23T07:48:21;98349.44;;;13.46;100.00
53908;BME280;40469;47.998;7.794;2023-04-23T07:50:46;98344.69;;;13.58;100.00
53908;BME280;40469;47.998;7.794;2023-04-23T07:53:12;98343.84;;;13.57;100.00
53908;BME280;40469;47.998;7.794;2023-04-23T07:55:37;98338.38;;;13.63;100.00
53908;BME280;40469;47.998;7.794;2023-04-23T07:58:03;98348.66;;;13.71;100.00
53908;BME280;40469;47.998;7.794;2023-04-23T08:00:28;98337.78;;;13.82;100.00
53908;BME280;40469;47.998;7.794;2023-04-23T08:02:53;98340.56;;;13.77;100.00
53908;BME280;40469;47.998;7.794;2023-04-23T08:05:19;98349.84;;;13.88;100.00
53908;BME280;40469;47.998;7.794;2023-04-23T08:07:44;98338.38;;;13.90;100.00
53908;BME280;40469;47.998;7.794;2023-04-23T08:10:10;98333.59;;;14.03;100.00
53908;BME280;40469;47.998;7.794;2023-04-23T08:12:35;98338.63;;;14.09;100.00
53908;BME280;40469;47.998;7.794;2023-04-23T08:15:01;98330.97;;;14.03;100.00
53908;BME280;40469;47.998;7.794;2023-04-23T08:17:27;98329.16;;;14.05;100.00
53908;BME280;40469;47.998;7.794;2023-04-23T08:19:52;98325.16;;;14.18;100.00
53908;BME280;40469;47.998;7.794;2023-04-23T08:22:17;98324.88;;;14.28;100.00
53908;BME280;40469;47.998;7.794;2023-04-23T08:24:43;98314.88;;;14.37;100.00
53908;BME280;40469;47.998;7.794;2023-04-23T08:27:10;98314.44;;;14.50;100.00
53908;BME280;40469;47.998;7.794;2023-04-23T08:29:36;98305.03;;;14.44;100.00
53908;BME280;40469;47.998;7.794;2023-04-23T08:32:01;98309.75;;;14.59;100.00
53908;BME280;40469;47.998;7.794;2023-04-23T08:34:26;98305.25;;;14.63;100.00
53908;BME280;40469;47.998;7.794;2023-04-23T08:36:52;98299.91;;;14.65;100.00
53908;BME280;40469;47.998;7.794;2023-04-23T08:39:20;98302.31;;;14.71;100.00
53908;BME280;40469;47.998;7.794;2023-04-23T08:41:50;98304.25;;;14.66;100.00
53908;BME280;40469;47.998;7.794;2023-04-23T08:44:24;98301.81;;;14.85;100.00
53908;BME280;40469;47.998;7.794;2023-04-23T08:46:52;98296.38;;;14.89;100.00
53908;BME280;40469;47.998;7.794;2023-04-23T08:49:18;98289.06;;;14.97;100.00
53908;BME280;40469;47.998;7.794;2023-04-23T08:51:53;98280.22;;;15.00;100.00
53908;BME280;40469;47.998;7.794;2023-04-23T08:54:27;98277.22;;;15.09;100.00
53908;BME280;40469;47.998;7.794;2023-04-23T08:56:56;98283.94;;;15.16;100.00
53908;BME280;40469;47.998;7.794;2023-04-23T08:59:23;98257.38;;;15.23;100.00
53908;BME280;40469;47.998;7.794;2023-04-23T09:01:49;98272.88;;;15.30;100.00
53908;BME280;40469;47.998;7.794;2023-04-23T09:04:15;98272.72;;;15.55;100.00
53908;BME280;40469;47.998;7.794;2023-04-23T09:06:42;98264.72;;;15.59;100.00
53908;BME280;40469;47.998;7.794;2023-04-23T09:09:08;98250.63;;;15.60;100.00
53908;BME280;40469;47.998;7.794;2023-04-23T09:11:35;98244.19;;;15.67;100.00
53908;BME280;40469;47.998;7.794;2023-04-23T09:14:01;98244.88;;;15.92;100.00
53908;BME280;40469;47.998;7.794;2023-04-23T09:16:26;98245.03;;;16.10;100.00
53908;BME280;40469;47.998;7.794;2023-04-23T09:18:52;98241.88;;;16.41;100.00
53908;BME280;40469;47.998;7.794;2023-04-23T09:21:19;98232.94;;;16.25;100.00
53908;BME280;40469;47.998;7.794;2023-04-23T09:23:44;98239.81;;;16.48;100.00
53908;BME280;40469;47.998;7.794;2023-04-23T09:26:18;98233.88;;;16.43;100.00
53908;BME280;40469;47.998;7.794;2023-04-23T09:28:48;98224.94;;;16.85;100.00
53908;BME280;40469;47.998;7.794;2023-04-23T09:31:14;98237.47;;;16.80;100.00
53908;BME280;40469;47.998;7.794;2023-04-23T09:33:39;98223.97;;;16.88;100.00
53908;BME280;40469;47.998;7.794;2023-04-23T09:36:14;98217.97;;;16.65;100.00
53908;BME280;40469;47.998;7.794;2023-04-23T09:38:42;98217.97;;;16.65;100.00
53908;BME280;40469;47.998;7.794;2023-04-23T09:43:47;98218.09;;;17.00;100.00
53908;BME280;40469;47.998;7.794;2023-04-23T09:46:12;98214.22;;;17.26;100.00
53908;BME280;40469;47.998;7.794;2023-04-23T09:48:41;98215.94;;;17.62;100.00
53908;BME280;40469;47.998;7.794;2023-04-23T09:51:07;98207.31;;;17.76;100.00
53908;BME280;40469;47.998;7.794;2023-04-23T09:53:40;98209.41;;;17.69;100.00
53908;BME280;40469;47.998;7.794;2023-04-23T09:56:06;98207.78;;;17.49;100.00
53908;BME280;40469;47.998;7.794;2023-04-23T09:58:32;98207.28;;;17.23;100.00
53908;BME280;40469;47.998;7.794;2023-04-23T10:01:07;98197.53;;;17.43;100.00
53908;BME280;40469;47.998;7.794;2023-04-23T10:03:33;98197.75;;;17.73;100.00
53908;BME280;40469;47.998;7.794;2023-04-23T10:05:58;98201.72;;;17.82;100.00
53908;BME280;40469;47.998;7.794;2023-04-23T10:08:25;98184.63;;;18.07;100.00
53908;BME280;40469;47.998;7.794;2023-04-23T10:10:51;98184.19;;;17.81;100.00
53908;BME280;40469;47.998;7.794;2023-04-23T10:13:17;98177.94;;;17.82;100.00
53908;BME280;40469;47.998;7.794;2023-04-23T10:15:45;98172.28;;;18.72;100.00
53908;BME280;40469;47.998;7.794;2023-04-23T10:18:13;98174.47;;;19.12;100.00
53908;BME280;40469;47.998;7.794;2023-04-23T10:20:39;98169.44;;;19.07;100.00
53908;BME280;40469;47.998;7.794;2023-04-23T10:23:07;98161.75;;;19.49;100.00
53908;BME280;40469;47.998;7.794;2023-04-23T10:25:35;98148.94;;;19.72;100.00
53908;BME280;40469;47.998;7.794;2023-04-23T10:28:01;98152.19;;;20.34;100.00
53908;BME280;40469;47.998;7.794;2023-04-23T10:30:29;98154.25;;;20.43;100.00
53908;BME280;40469;47.998;7.794;2023-04-23T10:32:56;98156.69;;;21.02;100.00
53908;BME280;40469;47.998;7.794;2023-04-23T10:35:23;98142.78;;;20.99;96.03
53908;BME280;40469;47.998;7.794;2023-04-23T10:37:49;98146.25;;;20.16;100.00
53908;BME280;40469;47.998;7.794;2023-04-23T10:40:19;98150.47;;;20.62;100.00
53908;BME280;40469;47.998;7.794;2023-04-23T10:42:48;98140.06;;;20.44;100.00
53908;BME280;40469;47.998;7.794;2023-04-23T10:45:16;98121.88;;;20.53;100.00
53908;BME280;40469;47.998;7.794;2023-04-23T10:47:43;98135.94;;;21.09;98.82
53908;BME280;40469;47.998;7.794;2023-04-23T10:50:19;98127.03;;;21.23;100.00
53908;BME280;40469;47.998;7.794;2023-04-23T10:52:45;98125.44;;;21.48;99.60
53908;BME280;40469;47.998;7.794;2023-04-23T10:55:16;98115.97;;;21.69;93.52
53908;BME280;40469;47.998;7.794;2023-04-23T10:58:02;98124.13;;;21.00;97.42
53908;BME280;40469;47.998;7.794;2023-04-23T11:00:40;98119.16;;;20.81;100.00
53908;BME280;40469;47.998;7.794;2023-04-23T11:03:35;98109.59;;;21.46;98.55
53908;BME280;40469;47.998;7.794;2023-04-23T11:06:04;98110.69;;;21.29;98.95
53908;BME280;40469;47.998;7.794;2023-04-23T11:08:30;98098.31;;;21.68;100.00
53908;BME280;40469;47.998;7.794;2023-04-23T11:10:58;98093.34;;;21.76;95.07
53908;BME280;40469;47.998;7.794;2023-04-23T11:13:25;98088.84;;;21.90;95.46
53908;BME280;40469;47.998;7.794;2023-04-23T11:16:16;98092.28;;;21.66;96.02
53908;BME280;40469;47.998;7.794;2023-04-23T11:24:22;98068.22;;;20.20;100.00
53908;BME280;40469;47.998;7.794;2023-04-23T11:26:50;98070.72;;;21.05;100.00
53908;BME280;40469;47.998;7.794;2023-04-23T11:29:16;98071.03;;;21.53;98.25
53908;BME280;40469;47.998;7.794;2023-04-23T11:31:42;98060.47;;;21.39;97.24
53908;BME280;40469;47.998;7.794;2023-04-23T11:34:08;98056.66;;;21.94;98.88
53908;BME280;40469;47.998;7.794;2023-04-23T11:36:34;98058.78;;;22.39;96.01
53908;BME280;40469;47.998;7.794;2023-04-23T11:39:00;98050.28;;;21.71;96.67
53908;BME280;40469;47.998;7.794;2023-04-23T11:41:27;98052.19;;;21.44;99.41
53908;BME280;40469;47.998;7.794;2023-04-23T11:43:54;98046.22;;;21.14;98.97
53908;BME280;40469;47.998;7.794;2023-04-23T11:46:22;98035.41;;;21.43;99.96
53908;BME280;40469;47.998;7.794;2023-04-23T11:48:48;98032.13;;;21.78;100.00
53908;BME280;40469;47.998;7.794;2023-04-23T11:51:13;98022.53;;;21.75;98.84
53908;BME280;40469;47.998;7.794;2023-04-23T11:53:46;98016.19;;;21.52;93.31
53908;BME280;40469;47.998;7.794;2023-04-23T11:56:15;98013.56;;;22.02;93.83
53908;BME280;40469;47.998;7.794;2023-04-23T11:58:40;98012.97;;;22.23;91.59
53908;BME280;40469;47.998;7.794;2023-04-23T12:01:05;98004.03;;;22.37;92.00
53908;BME280;40469;47.998;7.794;2023-04-23T12:03:32;98016.56;;;21.85;94.65
53908;BME280;40469;47.998;7.794;2023-04-23T12:05:57;98002.06;;;21.39;95.29
53908;BME280;40469;47.998;7.794;2023-04-23T12:08:22;98000.97;;;21.03;96.39
53908;BME280;40469;47.998;7.794;2023-04-23T12:13:22;98000.94;;;20.90;100.00
53908;BME280;40469;47.998;7.794;2023-04-23T12:15:50;97983.56;;;20.99;100.00
53908;BME280;40469;47.998;7.794;2023-04-23T12:18:16;97973.34;;;20.80;100.00
53908;BME280;40469;47.998;7.794;2023-04-23T12:20:42;97984.34;;;20.46;100.00
53908;BME280;40469;47.998;7.794;2023-04-23T12:23:08;97984.31;;;20.34;100.00
53908;BME280;40469;47.998;7.794;2023-04-23T12:25:34;97973.94;;;20.43;100.00
53908;BME280;40469;47.998;7.794;2023-04-23T12:28:00;97971.03;;;21.01;100.00
53908;BME280;40469;47.998;7.794;2023-04-23T12:30:31;97972.31;;;20.95;100.00
53908;BME280;40469;47.998;7.794;2023-04-23T12:33:01;97975.94;;;21.07;100.00
53908;BME280;40469;47.998;7.794;2023-04-23T12:35:57;97971.13;;;21.38;100.00
53908;BME280;40469;47.998;7.794;2023-04-23T12:38:23;97962.63;;;21.71;99.00
53908;BME280;40469;47.998;7.794;2023-04-23T12:40:49;97963.34;;;21.73;98.29
53908;BME280;40469;47.998;7.794;2023-04-23T12:43:15;97956.44;;;21.84;96.72
53908;BME280;40469;47.998;7.794;2023-04-23T12:45:40;97957.13;;;21.99;97.00
53908;BME280;40469;47.998;7.794;2023-04-23T12:48:06;97952.16;;;21.94;96.97
53908;BME280;40469;47.998;7.794;2023-04-23T12:50:31;97954.53;;;21.73;95.73
53908;BME280;40469;47.998;7.794;2023-04-23T12:52:57;97954.66;;;22.08;97.33
53908;BME280;40469;47.998;7.794;2023-04-23T12:55:22;97948.00;;;22.51;97.45
53908;BME280;40469;47.998;7.794;2023-04-23T12:57:47;97945.16;;;22.41;94.83